Time;durP1;ratioP1;P1;durP2;ratioP2;P2;SDS_P1;SDS_P2;PMS_P1;PMS_P2;Temp;Humidity;BMP_temperature;BMP_pressure;BME280_temperature;BME280_humidity;BME280_pressure;Samples;Min_cycle;Max_cycle;Signal;HPM_P1;HPM_P2
2023/12/04 00:03:26;;;;;;;;;;;;;;;;;;;;;
2023/12/04 00:13:08;;;;;;;15.10;8.43;;;;;;;-143.21;71.76;74343.47;4891181;29;20770;-77
2023/12/04 00:16:12;;;;;;;13.37;8.10;;;;;;;-143.21;71.56;74353.41;4903449;28;20217;-77
2023/12/04 00:21:51;;;;;;;11.97;7.50;;;;;;;-143.21;72.41;74367.28;4945705;28;20201;-78
2023/12/04 00:24:24;;;;;;;14.47;8.60;;;;;;;-143.21;71.98;74365.31;4965693;28;20300;-77
2023/12/04 00:27:26;;;;;;;16.30;8.93;;;;;;;-143.21;71.37;74361.34;4991618;28;20303;-76
2023/12/04 00:30:06;;;;;;;14.87;7.73;;;;;;;-143.21;70.30;74355.38;5008113;28;20220;-78
2023/12/04 00:32:38;;;;;;;11.73;7.20;;;;;;;-143.21;70.31;74389.13;5007721;28;20207;-78
2023/12/04 00:35:12;;;;;;;12.50;7.40;;;;;;;-143.21;71.11;74401.03;5009454;28;20293;-78
2023/12/04 00:37:52;;;;;;;13.13;8.00;;;;;;;-143.21;71.29;74406.97;5005068;28;20205;-78
2023/12/04 00:40:26;;;;;;;16.03;7.50;;;;;;;-143.21;71.57;74399.03;5007806;28;20597;-78
2023/12/04 00:43:07;;;;;;;15.40;7.77;;;;;;;-143.21;71.47;74403.00;5007649;28;20664;-78
2023/12/04 00:45:38;;;;;;;13.33;8.07;;;;;;;-143.21;72.26;74410.94;5009698;28;20221;-78
2023/12/04 00:48:05;;;;;;;13.30;8.33;;;;;;;-143.21;71.63;74418.88;5010056;28;20698;-77
2023/12/04 00:50:32;;;;;;;11.37;7.57;;;;;;;-143.21;71.85;74408.97;5011865;28;20232;-79
2023/12/04 00:52:59;;;;;;;14.37;8.40;;;;;;;-143.21;71.76;74395.06;5009283;28;20233;-78
2023/12/04 00:55:25;;;;;;;16.83;8.73;;;;;;;-143.21;71.50;74387.13;5008241;28;20683;-78
2023/12/04 00:57:52;;;;;;;13.00;7.77;;;;;;;-143.21;70.78;74393.09;5011338;28;20726;-79
2023/12/04 01:00:20;;;;;;;12.27;8.03;;;;;;;-143.21;70.18;74393.09;5008346;28;20621;-78
2023/12/04 01:02:47;;;;;;;12.33;7.80;;;;;;;-143.21;70.40;74383.16;5009037;28;20202;-78
2023/12/04 01:05:14;;;;;;;13.90;7.93;;;;;;;-143.21;69.60;74387.13;5009272;28;20211;-78
2023/12/04 01:07:41;;;;;;;12.07;7.13;;;;;;;-143.21;69.18;74395.06;5010222;28;20663;-78
2023/12/04 01:10:08;;;;;;;14.67;8.13;;;;;;;-143.21;69.46;74395.06;5010221;28;20203;-78
2023/12/04 01:12:35;;;;;;;12.70;8.10;;;;;;;-143.21;69.54;74397.06;5024562;28;20243;-77
2023/12/04 01:15:03;;;;;;;13.70;8.73;;;;;;;-143.21;69.67;74395.06;5028463;28;20711;-78
2023/12/04 01:17:31;;;;;;;14.30;8.70;;;;;;;-143.21;70.12;74383.16;5028237;28;20247;-79
2023/12/04 01:19:58;;;;;;;13.60;8.43;;;;;;;-143.21;69.87;74385.16;5028805;28;20216;-78
2023/12/04 01:22:25;;;;;;;14.00;8.33;;;;;;;-143.21;69.87;74379.19;5028403;28;20230;-78
2023/12/04 01:24:51;;;;;;;12.90;7.97;;;;;;;-143.21;69.71;74391.09;5027778;28;20668;-79
2023/12/04 01:27:18;;;;;;;15.87;8.47;;;;;;;-143.21;69.42;74410.94;5028068;28;20208;-77
2023/12/04 01:29:45;;;;;;;13.60;8.10;;;;;;;-143.21;69.66;74412.94;5029686;28;20203;-77
2023/12/04 01:32:12;;;;;;;13.87;8.17;;;;;;;-143.21;69.73;74418.88;5028595;28;20240;-77
2023/12/04 01:34:40;;;;;;;12.73;7.77;;;;;;;-143.21;69.63;74416.91;5028108;28;20214;-79
2023/12/04 01:37:07;;;;;;;13.57;8.50;;;;;;;-143.21;70.55;74418.88;5028670;28;20203;-78
2023/12/04 01:39:33;;;;;;;12.97;8.20;;;;;;;-143.21;70.42;74414.91;5028373;28;20219;-78
2023/12/04 01:42:00;;;;;;;14.57;8.73;;;;;;;-143.21;69.95;74412.94;5029949;28;20206;-78
2023/12/04 01:44:27;;;;;;;14.47;8.17;;;;;;;-143.21;70.05;74399.03;5027081;28;20213;-78
2023/12/04 01:46:55;;;;;;;13.70;8.23;;;;;;;-143.21;70.25;74399.03;5028346;28;20204;-77
2023/12/04 01:49:21;;;;;;;11.30;7.47;;;;;;;-143.21;69.32;74395.06;5027012;28;20213;-78
2023/12/04 01:51:50;;;;;;;12.47;7.50;;;;;;;-143.21;69.69;74424.84;5028858;28;20230;-78
2023/12/04 01:54:17;;;;;;;14.30;8.07;;;;;;;-143.21;70.16;74436.75;5026862;28;20217;-78
2023/12/04 01:56:45;;;;;;;13.23;7.77;;;;;;;-143.21;70.12;74446.66;5026414;28;20208;-78
2023/12/04 01:59:12;;;;;;;13.80;7.90;;;;;;;-143.21;70.37;74448.66;5028186;28;20224;-78
2023/12/04 02:01:40;;;;;;;13.80;7.80;;;;;;;-143.21;70.58;74442.69;5028807;28;20211;-78
2023/12/04 02:04:07;;;;;;;15.43;7.80;;;;;;;-143.21;70.68;74438.72;5028591;28;20203;-78
2023/12/04 02:06:34;;;;;;;13.97;7.87;;;;;;;-143.21;70.29;74442.69;5027471;28;20207;-78
2023/12/04 02:09:03;;;;;;;14.97;8.20;;;;;;;-143.21;70.44;74444.69;5027218;28;20997;-78
2023/12/04 02:11:30;;;;;;;13.33;7.90;;;;;;;-143.21;70.03;74450.63;5026881;28;20246;-78
2023/12/04 02:13:57;;;;;;;12.23;7.10;;;;;;;-143.21;70.29;74480.41;5029895;28;20230;-77
2023/12/04 02:16:26;;;;;;;16.87;7.43;;;;;;;-143.21;70.91;74494.28;5027805;28;20202;-77
2023/12/04 02:18:53;;;;;;;15.37;7.80;;;;;;;-143.21;71.36;74486.34;5027854;28;20275;-78
2023/12/04 02:21:20;;;;;;;15.87;8.13;;;;;;;-143.21;71.33;74484.38;5026653;28;20578;-77
2023/12/04 02:23:50;;;;;;;13.50;7.97;;;;;;;-143.21;70.79;74490.31;5028596;28;20203;-77
2023/12/04 02:26:18;;;;;;;11.73;7.30;;;;;;;-143.21;70.97;74500.25;5029223;28;20210;-77
2023/12/04 02:28:50;;;;;;;14.23;7.80;;;;;;;-143.21;70.97;74500.25;5026671;28;20234;-78
2023/12/04 02:31:19;;;;;;;12.17;7.30;;;;;;;-143.21;70.36;74484.38;5026933;28;20204;-78
2023/12/04 02:33:48;;;;;;;11.23;6.90;;;;;;;-143.21;70.18;74478.41;5027085;28;20211;-77
2023/12/04 02:36:16;;;;;;;13.47;7.73;;;;;;;-143.21;70.30;74502.22;5029044;28;20690;-76
2023/12/04 02:38:43;;;;;;;18.47;7.47;;;;;;;-143.21;70.02;74506.19;5027184;28;20214;-76
2023/12/04 02:41:11;;;;;;;13.07;7.13;;;;;;;-143.21;70.54;74526.03;5026524;28;20210;-77
2023/12/04 02:43:38;;;;;;;12.60;7.70;;;;;;;-143.21;70.68;74526.03;5026809;28;20400;-77
2023/12/04 02:46:05;;;;;;;14.63;7.90;;;;;;;-143.21;70.71;74522.06;5027692;28;20218;-78
2023/12/04 02:48:32;;;;;;;11.83;7.37;;;;;;;-143.21;70.76;74508.19;5027503;28;20215;-78
2023/12/04 02:50:59;;;;;;;12.27;7.77;;;;;;;-143.21;70.76;74510.16;5026704;28;21353;-78
2023/12/04 02:53:26;;;;;;;12.97;8.07;;;;;;;-143.21;70.70;74508.19;5026290;28;20232;-77
2023/12/04 02:55:52;;;;;;;13.97;7.43;;;;;;;-143.21;70.31;74498.25;5026515;28;20716;-77
2023/12/04 02:58:20;;;;;;;12.40;7.30;;;;;;;-143.21;70.65;74510.16;5028835;28;20696;-77
2023/12/04 03:00:47;;;;;;;13.00;7.70;;;;;;;-143.21;70.94;74522.06;5024554;28;20636;-78
2023/12/04 03:03:14;;;;;;;11.70;7.50;;;;;;;-143.21;70.59;74506.19;5025525;28;20634;-78
2023/12/04 03:05:41;;;;;;;14.63;8.10;;;;;;;-143.21;70.41;74502.22;5025531;28;20214;-78
2023/12/04 03:08:08;;;;;;;16.03;8.50;;;;;;;-143.21;70.92;74510.16;5021457;28;20211;-77
2023/12/04 03:10:34;;;;;;;15.63;8.20;;;;;;;-143.21;71.15;74524.06;5027405;28;20747;-76
2023/12/04 03:13:01;;;;;;;12.70;7.10;;;;;;;-143.21;70.74;74532.00;5026101;28;20224;-77
2023/12/04 03:15:30;;;;;;;10.57;6.23;;;;;;;-143.21;71.02;74553.81;5025933;28;20215;-79
2023/12/04 03:17:59;;;;;;;13.83;7.17;;;;;;;-143.21;71.10;74565.72;5025433;28;20213;-77
2023/12/04 03:20:26;;;;;;;13.33;7.23;;;;;;;-143.21;71.33;74577.63;5028574;28;20630;-77
2023/12/04 03:22:52;;;;;;;13.83;7.67;;;;;;;-143.21;70.84;74557.78;5025675;28;20211;-78
2023/12/04 03:25:18;;;;;;;14.47;8.00;;;;;;;-143.21;70.58;74551.84;5025401;28;20670;-77
2023/12/04 03:27:45;;;;;;;12.00;7.17;;;;;;;-143.21;70.61;74555.81;5024782;28;20202;-76
2023/12/04 03:30:13;;;;;;;13.77;7.63;;;;;;;-143.21;70.89;74577.63;5027233;28;20203;-76
2023/12/04 03:32:41;;;;;;;12.33;6.67;;;;;;;-143.21;71.15;74583.59;5026593;28;20234;-76
2023/12/04 03:35:08;;;;;;;13.40;7.50;;;;;;;-143.21;71.26;74595.50;5023514;28;20228;-78
2023/12/04 03:37:35;;;;;;;12.43;7.13;;;;;;;-143.21;71.48;74597.47;5022834;28;20206;-78
2023/12/04 03:40:02;;;;;;;14.60;8.03;;;;;;;-143.21;71.44;74603.44;5025640;28;20214;-76
2023/12/04 03:42:28;;;;;;;14.80;8.40;;;;;;;-143.21;71.51;74617.31;5028321;28;20207;-76
2023/12/04 03:44:55;;;;;;;12.70;7.23;;;;;;;-143.21;71.37;74613.34;5025552;28;20286;-77
2023/12/04 03:47:23;;;;;;;11.97;7.43;;;;;;;-143.21;71.55;74613.34;5026244;28;20202;-77
2023/12/04 03:49:51;;;;;;;12.87;6.50;;;;;;;-143.21;71.44;74623.28;5026184;28;20291;-76
2023/12/04 03:52:18;;;;;;;14.57;7.73;;;;;;;-143.21;72.01;74641.13;5024747;28;20230;-76
2023/12/04 03:54:45;;;;;;;13.93;7.07;;;;;;;-143.21;71.99;74639.16;5026373;28;20210;-76
2023/12/04 03:57:12;;;;;;;15.50;7.93;;;;;;;-143.21;72.15;74641.13;5026072;28;20264;-76
2023/12/04 03:59:38;;;;;;;12.70;7.27;;;;;;;-143.21;72.18;74633.19;5025587;28;20210;-76
2023/12/04 04:02:05;;;;;;;12.70;7.53;;;;;;;-143.21;71.91;74629.22;5026384;28;20214;-77
2023/12/04 04:04:32;;;;;;;12.53;7.63;;;;;;;-143.21;72.07;74629.22;5027962;28;20203;-77
2023/12/04 04:07:00;;;;;;;12.20;7.10;;;;;;;-143.21;71.85;74629.22;5025103;28;21233;-77
2023/12/04 04:09:27;;;;;;;11.93;7.47;;;;;;;-143.21;71.76;74629.22;5024890;28;20763;-76
2023/12/04 04:11:54;;;;;;;14.07;7.57;;;;;;;-143.21;71.77;74617.31;5024984;28;20246;-77
2023/12/04 04:14:20;;;;;;;14.30;8.23;;;;;;;-143.21;71.42;74611.38;5027895;28;20207;-77
2023/12/04 04:16:47;;;;;;;16.83;9.00;;;;;;;-143.21;71.47;74609.38;5025228;28;20203;-77
2023/12/04 04:19:14;;;;;;;19.30;11.00;;;;;;;-143.21;71.03;74597.47;5025676;28;20211;-78
2023/12/04 04:21:41;;;;;;;20.20;11.60;;;;;;;-143.21;71.07;74609.38;5025417;28;20313;-78
2023/12/04 04:24:10;;;;;;;18.80;10.70;;;;;;;-143.21;70.43;74589.53;5024076;28;20202;-79
2023/12/04 04:26:37;;;;;;;16.27;9.27;;;;;;;-143.21;70.33;74607.41;5027769;28;20205;-80
2023/12/04 04:29:03;;;;;;;14.30;8.20;;;;;;;-143.21;70.44;74609.38;5026105;28;20576;-80
2023/12/04 04:31:30;;;;;;;15.17;8.87;;;;;;;-143.21;70.73;74619.31;5025568;28;20203;-79
2023/12/04 04:33:57;;;;;;;14.67;8.67;;;;;;;-143.21;70.88;74633.19;5024792;28;20234;-79
2023/12/04 04:36:24;;;;;;;15.50;8.03;;;;;;;-143.21;70.77;74647.09;5028075;28;20274;-79
2023/12/04 04:38:50;;;;;;;16.20;8.10;;;;;;;-143.21;70.99;74645.09;5025473;28;20211;-78
2023/12/04 04:41:19;;;;;;;13.17;8.10;;;;;;;-143.21;71.02;74657.00;5025168;28;20212;-78
2023/12/04 04:43:45;;;;;;;13.33;8.07;;;;;;;-143.21;71.00;74651.06;5025811;28;20212;-78
2023/12/04 04:46:12;;;;;;;13.97;7.83;;;;;;;-143.21;71.24;74653.06;5030649;28;20241;-78
2023/12/04 04:48:39;;;;;;;16.10;8.23;;;;;;;-143.21;71.21;74641.13;5030049;28;20683;-77
2023/12/04 04:51:06;;;;;;;12.70;8.30;;;;;;;-143.21;70.73;74619.31;5029060;28;20208;-77
2023/12/04 04:53:33;;;;;;;17.77;8.67;;;;;;;-143.21;70.35;74627.25;5028653;28;20230;-77
2023/12/04 04:56:00;;;;;;;15.37;9.10;;;;;;;-143.21;70.09;74625.25;5028623;28;20236;-78
2023/12/04 04:58:28;;;;;;;17.30;8.83;;;;;;;-143.21;69.97;74635.19;5031173;28;20212;-77
2023/12/04 05:00:55;;;;;;;17.93;9.23;;;;;;;-143.21;69.95;74655.03;5027895;28;20207;-77
2023/12/04 05:03:21;;;;;;;17.60;8.83;;;;;;;-143.21;70.36;74668.94;5027476;28;20207;-77
2023/12/04 05:05:48;;;;;;;13.67;8.50;;;;;;;-143.21;70.77;74662.97;5028458;28;20230;-78
2023/12/04 05:08:15;;;;;;;18.77;9.60;;;;;;;-143.21;70.47;74662.97;5030544;28;20210;-78
2023/12/04 05:10:42;;;;;;;17.30;9.07;;;;;;;-143.21;70.46;74649.09;5028508;28;20297;-78
2023/12/04 05:13:09;;;;;;;17.83;9.30;;;;;;;-143.21;70.68;74661.00;5028225;28;20227;-78
2023/12/04 05:15:37;;;;;;;16.93;10.17;;;;;;;-143.21;70.56;74666.94;5024735;28;20206;-77
2023/12/04 05:18:04;;;;;;;13.90;8.97;;;;;;;-143.21;70.31;74662.97;5029443;28;20207;-78
2023/12/04 05:20:31;;;;;;;19.07;9.33;;;;;;;-143.21;70.48;74672.91;5030198;28;20209;-78
2023/12/04 05:22:58;;;;;;;18.47;10.13;;;;;;;-143.21;70.60;74662.97;5028294;28;20208;-79
2023/12/04 05:25:24;;;;;;;19.20;9.53;;;;;;;-143.21;70.56;74659.00;5029034;28;20202;-79
2023/12/04 05:27:51;;;;;;;16.53;9.57;;;;;;;-143.21;70.42;74666.94;5028580;28;21485;-79
2023/12/04 05:30:19;;;;;;;17.03;9.57;;;;;;;-143.21;70.55;74659.00;5030637;28;20207;-79
2023/12/04 05:32:47;;;;;;;17.07;9.53;;;;;;;-143.21;70.58;74659.00;5028039;28;20226;-79
2023/12/04 05:35:15;;;;;;;17.90;10.20;;;;;;;-143.21;70.18;74657.00;5027022;28;20256;-76
2023/12/04 05:37:42;;;;;;;19.10;10.47;;;;;;;-143.21;70.37;74653.06;5023192;28;20196;-77
2023/12/04 05:40:10;;;;;;;23.57;11.07;;;;;;;-143.21;70.18;74666.94;5026057;28;20602;-76
2023/12/04 05:42:42;;;;;;;21.23;10.70;;;;;;;-143.21;70.31;74678.84;5022765;28;20199;-76
2023/12/04 05:45:10;;;;;;;14.83;9.30;;;;;;;-143.21;70.82;74702.66;5025065;28;20199;-77
2023/12/04 05:47:37;;;;;;;18.80;9.60;;;;;;;-143.21;70.62;74684.81;5026647;28;20195;-77
2023/12/04 05:50:07;;;;;;;17.93;10.77;;;;;;;-143.21;70.83;74704.66;5027429;28;20199;-77
2023/12/04 05:52:33;;;;;;;17.87;10.23;;;;;;;-143.21;71.05;74716.56;5036193;28;20234;-86
2023/12/04 05:55:00;;;;;;;17.57;9.50;;;;;;;-143.21;71.34;74714.56;5032223;28;20207;-77
2023/12/04 05:57:27;;;;;;;17.43;9.10;;;;;;;-143.21;71.59;74730.44;5021427;28;20210;-75
2023/12/04 05:59:54;;;;;;;18.83;9.37;;;;;;;-143.21;71.47;74724.50;5021941;28;20232;-75
2023/12/04 06:02:21;;;;;;;16.63;9.27;;;;;;;-143.21;71.83;74726.47;5028043;28;20646;-76
2023/12/04 06:04:48;;;;;;;17.33;9.13;;;;;;;-143.21;71.92;74734.41;5028841;28;20202;-75
2023/12/04 06:07:16;;;;;;;16.87;8.93;;;;;;;-143.21;71.77;74724.50;5027697;28;20272;-76
2023/12/04 06:09:43;;;;;;;16.60;9.63;;;;;;;-143.21;71.65;74702.66;5027012;28;20743;-75
2023/12/04 06:12:09;;;;;;;17.07;9.53;;;;;;;-143.21;71.57;74710.59;5027171;28;20238;-76
2023/12/04 06:14:36;;;;;;;16.30;8.90;;;;;;;-143.21;71.57;74714.56;5026314;28;20223;-75
2023/12/04 06:17:05;;;;;;;14.13;8.53;;;;;;;-143.21;71.09;74700.69;5026147;28;20297;-75
2023/12/04 06:19:32;;;;;;;15.33;7.73;;;;;;;-143.21;71.20;74716.56;5027162;28;20656;-77
2023/12/04 06:21:58;;;;;;;14.43;8.17;;;;;;;-143.21;71.29;74722.50;5027151;28;20206;-76
2023/12/04 06:24:27;;;;;;;15.17;8.87;;;;;;;-143.21;71.41;74718.53;5028511;28;20261;-76
2023/12/04 06:26:54;;;;;;;17.50;8.90;;;;;;;-143.21;71.59;74716.56;5028208;28;20211;-75
2023/12/04 06:29:22;;;;;;;17.23;9.00;;;;;;;-143.21;71.47;74718.53;5026593;28;20206;-76
2023/12/04 06:31:49;;;;;;;18.93;9.47;;;;;;;-143.21;71.42;74706.63;5026637;28;20576;-77
2023/12/04 06:34:16;;;;;;;20.27;10.00;;;;;;;-143.21;70.96;74682.81;5026962;28;20257;-76
2023/12/04 06:36:44;;;;;;;19.60;10.33;;;;;;;-143.21;70.71;74668.94;5028621;28;20218;-76
2023/12/04 06:39:12;;;;;;;14.13;8.20;;;;;;;-143.21;70.14;74666.94;5025705;28;20221;-75
2023/12/04 06:41:42;;;;;;;14.23;7.93;;;;;;;-143.21;70.29;74688.78;5026979;28;20297;-76
2023/12/04 06:44:09;;;;;;;16.50;9.10;;;;;;;-143.21;70.18;74682.81;5019204;28;20301;-75
2023/12/04 06:46:38;;;;;;;14.93;8.43;;;;;;;-143.21;70.26;74686.78;5026961;28;20198;-76
2023/12/04 06:49:06;;;;;;;17.70;9.23;;;;;;;-143.21;70.10;74692.75;5027567;28;20223;-76
2023/12/04 06:51:33;;;;;;;16.73;9.20;;;;;;;-143.21;70.48;74706.63;5026205;28;20654;-76
2023/12/04 06:54:03;;;;;;;17.00;9.40;;;;;;;-143.21;70.98;74694.72;5025813;28;20231;-75
2023/12/04 06:56:30;;;;;;;18.13;9.27;;;;;;;-143.21;70.75;74688.78;5026737;28;20321;-77
2023/12/04 06:58:58;;;;;;;17.20;8.90;;;;;;;-143.21;70.41;74666.94;5028161;28;20211;-76
2023/12/04 07:01:25;;;;;;;13.67;7.27;;;;;;;-143.21;69.49;74676.88;5026487;28;20202;-76
2023/12/04 07:03:51;;;;;;;14.27;7.90;;;;;;;-143.21;69.58;74680.84;5025663;28;20200;-77
2023/12/04 07:06:18;;;;;;;11.87;7.10;;;;;;;-143.21;69.91;74682.81;5026020;28;20209;-76
2023/12/04 07:08:45;;;;;;;14.87;8.13;;;;;;;-143.21;70.03;74672.91;5027187;28;20658;-77
2023/12/04 07:11:14;;;;;;;17.60;9.43;;;;;;;-143.21;69.76;74668.94;5027327;28;20235;-76
2023/12/04 07:13:41;;;;;;;14.87;8.17;;;;;;;-143.21;69.65;74680.84;5025302;28;20310;-77
2023/12/04 07:16:10;;;;;;;14.77;8.53;;;;;;;-143.21;69.28;74664.97;5025819;28;20570;-76
2023/12/04 07:18:37;;;;;;;15.33;8.40;;;;;;;-143.21;69.69;74680.84;5026197;28;20561;-76
2023/12/04 07:21:05;;;;;;;18.97;9.37;;;;;;;-143.21;69.89;74690.75;5027919;28;20211;-76
2023/12/04 07:23:31;;;;;;;16.37;9.13;;;;;;;-143.21;69.68;74680.84;5025007;28;20208;-76
2023/12/04 07:25:58;;;;;;;21.13;9.70;;;;;;;-143.21;69.61;74680.84;5025730;28;20218;-76
2023/12/04 07:28:25;;;;;;;16.97;9.43;;;;;;;-143.21;69.81;74674.88;5024647;28;20657;-75
2023/12/04 07:30:52;;;;;;;15.57;8.53;;;;;;;-143.21;70.09;74672.91;5026458;28;20199;-76
2023/12/04 07:33:20;;;;;;;16.70;9.47;;;;;;;-143.21;70.07;74674.88;5025642;28;20233;-76
2023/12/04 07:35:47;;;;;;;18.07;9.60;;;;;;;-143.21;69.41;74645.09;5024659;28;20313;-76
2023/12/04 07:38:14;;;;;;;18.77;9.47;;;;;;;-143.21;68.99;74625.25;5025395;28;20240;-75
2023/12/04 07:40:41;;;;;;;12.03;7.13;;;;;;;-143.21;68.36;74647.09;5025482;28;20230;-77
2023/12/04 07:43:07;;;;;;;13.33;7.37;;;;;;;-143.21;68.08;74645.09;5027485;28;20231;-76
2023/12/04 07:45:36;;;;;;;13.97;8.07;;;;;;;-143.21;68.34;74649.09;5025561;28;20207;-76
2023/12/04 07:48:03;;;;;;;20.03;9.43;;;;;;;-143.21;68.32;74645.09;5025322;28;20289;-76
2023/12/04 07:50:32;;;;;;;15.83;9.13;;;;;;;-143.21;68.71;74641.13;5025636;28;20544;-79
2023/12/04 07:52:59;;;;;;;13.30;8.00;;;;;;;-143.21;68.42;74651.06;5027512;28;20709;-80
2023/12/04 07:55:26;;;;;;;12.97;8.40;;;;;;;-143.21;69.09;74641.13;5029994;28;20209;-91
2023/12/04 07:57:53;;;;;;;14.50;8.20;;;;;;;-143.21;69.07;74633.19;5032310;28;20654;-93
2023/12/04 08:00:22;;;;;;;14.63;9.00;;;;;;;-143.21;68.65;74615.34;5032705;28;20207;-86
2023/12/04 08:03:08;;;;;;;14.73;8.57;;;;;;;-143.21;67.61;74591.53;5029861;28;20214;-87
2023/12/04 08:05:36;;;;;;;15.33;8.73;;;;;;;-143.21;67.34;74589.53;5024789;28;20671;-85
2023/12/04 08:08:03;;;;;;;15.37;8.43;;;;;;;-143.21;67.26;74573.66;5029003;28;20196;-85
2023/12/04 08:10:31;;;;;;;14.57;7.87;;;;;;;-143.21;65.85;74575.66;5028219;28;20212;-86
2023/12/04 08:12:58;;;;;;;11.83;7.20;;;;;;;-143.21;65.86;74571.69;5028493;28;20215;-87
2023/12/04 08:15:25;;;;;;;16.27;8.90;;;;;;;-143.21;66.11;74545.88;5029517;28;20209;-85
2023/12/04 08:17:52;;;;;;;12.47;7.37;;;;;;;-143.21;64.23;74530.00;5029695;28;20206;-85
2023/12/04 08:20:22;;;;;;;11.67;6.80;;;;;;;-143.21;63.05;74522.06;5034086;28;20209;-90
2023/12/04 08:22:54;;;;;;;9.40;6.47;;;;;;;-143.21;62.52;74514.13;5036139;28;20665;-88
2023/12/04 08:25:21;;;;;;;10.47;6.57;;;;;;;-143.21;62.29;74502.22;5033611;28;20229;-87
2023/12/04 08:27:49;;;;;;;11.17;7.27;;;;;;;-143.21;61.86;74502.22;5032511;28;20279;-85
2023/12/04 08:30:16;;;;;;;11.60;7.00;;;;;;;-143.21;61.64;74494.28;5032571;28;20293;-87
2023/12/04 08:32:44;;;;;;;12.97;7.23;;;;;;;-143.21;61.33;74498.25;5031807;28;20202;-82
2023/12/04 08:35:11;;;;;;;14.83;7.07;;;;;;;-143.21;61.94;74516.13;5031403;28;20691;-85
2023/12/04 08:37:41;;;;;;;10.33;5.90;;;;;;;-143.21;60.99;74512.16;5032195;28;20211;-86
2023/12/04 08:40:10;;;;;;;10.03;6.00;;;;;;;-143.21;61.46;74516.13;5033458;28;20661;-82
2023/12/04 08:42:37;;;;;;;8.33;5.40;;;;;;;-143.21;62.01;74522.06;5027834;28;20203;-83
2023/12/04 08:45:06;;;;;;;9.07;5.83;;;;;;;-143.21;62.16;74520.09;5029831;28;20234;-84
2023/12/04 08:47:33;;;;;;;9.33;5.87;;;;;;;-143.21;62.39;74526.03;5030620;28;20328;-83
2023/12/04 08:50:01;;;;;;;9.20;5.60;;;;;;;-143.21;62.31;74535.97;5032339;28;20234;-83
2023/12/04 08:52:28;;;;;;;8.53;5.47;;;;;;;-143.21;62.78;74543.91;5032195;28;20241;-85
2023/12/04 08:54:55;;;;;;;8.60;5.70;;;;;;;-143.21;62.48;74545.88;5031907;28;20233;-89
2023/12/04 08:57:23;;;;;;;10.23;6.47;;;;;;;-143.21;62.43;74532.00;5031467;28;20212;-83
2023/12/04 08:59:50;;;;;;;11.17;7.30;;;;;;;-143.21;62.65;74508.19;5030992;28;21084;-84
2023/12/04 09:02:17;;;;;;;9.97;6.03;;;;;;;-143.21;62.52;74504.22;5032191;28;20205;-83
2023/12/04 09:04:44;;;;;;;10.17;6.27;;;;;;;-143.21;62.42;74510.16;5031616;28;20227;-84
2023/12/04 09:07:11;;;;;;;10.90;6.47;;;;;;;-143.21;63.03;74528.03;5031307;28;20262;-84
2023/12/04 09:09:38;;;;;;;10.70;6.40;;;;;;;-143.21;64.06;74549.84;5031216;28;20672;-83
2023/12/04 09:12:08;;;;;;;9.43;5.80;;;;;;;-143.21;63.64;74537.94;5031955;28;20248;-81
2023/12/04 09:14:37;;;;;;;11.20;6.07;;;;;;;-143.21;63.55;74510.16;5032294;28;20230;-83
2023/12/04 09:17:04;;;;;;;10.43;6.37;;;;;;;-143.21;63.64;74510.16;5030812;28;20208;-81
2023/12/04 09:19:31;;;;;;;12.97;6.93;;;;;;;-143.21;63.77;74508.19;5030898;28;20203;-83
2023/12/04 09:21:58;;;;;;;10.53;6.13;;;;;;;-143.21;62.65;74482.38;5030943;28;20216;-83
2023/12/04 09:24:25;;;;;;;8.10;5.80;;;;;;;-143.21;61.13;74468.50;5031554;28;20684;-82
2023/12/04 09:26:52;;;;;;;8.20;5.43;;;;;;;-143.21;61.74;74466.50;5030188;28;20710;-80
2023/12/04 09:29:23;;;;;;;10.13;6.20;;;;;;;-143.21;62.34;74474.44;5030784;28;20207;-83
2023/12/04 09:31:52;;;;;;;9.60;6.00;;;;;;;-143.21;62.18;74478.41;5029226;28;20237;-83
2023/12/04 09:34:20;;;;;;;9.27;5.83;;;;;;;-143.21;61.87;74466.50;5031572;28;20226;-82
2023/12/04 09:36:47;;;;;;;11.07;6.90;;;;;;;-143.21;61.89;74446.66;5032169;28;20216;-83
2023/12/04 09:39:14;;;;;;;11.57;7.00;;;;;;;-143.21;61.75;74422.84;5030149;28;20642;-83
2023/12/04 09:41:43;;;;;;;8.50;5.90;;;;;;;-143.21;60.84;74434.75;5027956;28;20215;-82
2023/12/04 09:44:10;;;;;;;12.30;6.93;;;;;;;-143.21;60.34;74434.75;5026218;28;20281;-81
2023/12/04 09:46:37;;;;;;;10.27;6.07;;;;;;;-143.21;60.50;74385.16;5031535;28;20616;-82
2023/12/04 09:49:06;;;;;;;9.57;5.70;;;;;;;-143.21;59.62;74242.28;5030025;28;20221;-84
2023/12/04 09:51:33;;;;;;;5.93;4.67;;;;;;;-143.21;56.41;74010.13;5031096;28;20217;-82
2023/12/04 09:54:04;;;;;;;8.40;4.97;;;;;;;-143.21;50.06;73770.06;5027969;28;21774;-82
2023/12/04 09:56:34;;;;;;;9.57;5.03;;;;;;;-143.21;47.54;73637.13;5024346;28;20195;-83
2023/12/04 09:59:02;;;;;;;9.83;5.20;;;;;;;-143.21;46.31;73512.16;5030666;28;20730;-83
2023/12/04 10:01:30;;;;;;;9.13;5.73;;;;;;;-143.21;40.61;73428.81;5030344;28;20221;-83
2023/12/04 10:04:01;;;;;;;9.80;5.00;;;;;;;-143.21;40.65;73409.00;5030849;28;20277;-84
2023/12/04 10:06:29;;;;;;;6.97;4.87;;;;;;;-143.21;39.83;73369.31;5030714;28;20206;-83
2023/12/04 10:08:58;;;;;;;11.60;4.93;;;;;;;-143.21;37.75;73234.41;5032162;28;20238;-84
2023/12/04 10:11:26;;;;;;;7.47;5.33;;;;;;;-143.21;35.21;73049.94;5036261;28;20235;-84
2023/12/04 10:13:54;;;;;;;6.63;4.87;;;;;;;-143.21;32.35;72841.69;5044482;28;20309;-83
2023/12/04 10:16:35;;;;;;;6.13;4.80;;;;;;;-143.21;30.37;72679.03;5031984;28;20198;-80
2023/12/04 10:19:19;;;;;;;7.93;4.50;;;;;;;-143.21;28.90;72593.75;5033785;28;20272;-83
2023/12/04 10:21:49;;;;;;;6.87;5.10;;;;;;;-143.21;28.36;72506.50;5034378;28;20206;-84
2023/12/04 10:24:30;;;;;;;6.40;4.63;;;;;;;-143.21;27.73;72439.06;5036591;28;20191;-84
2023/12/04 10:26:58;;;;;;;5.63;5.00;;;;;;;-143.21;26.85;72387.50;5026064;28;20646;-81
2023/12/04 10:29:28;;;;;;;6.20;4.90;;;;;;;-143.21;26.61;72399.41;5026378;28;20289;-81
2023/12/04 10:31:55;;;;;;;8.20;4.47;;;;;;;-143.21;26.76;72601.69;5024759;28;20204;-80
2023/12/04 10:34:25;;;;;;;6.43;4.67;;;;;;;-143.21;27.42;72673.09;5038571;28;20227;-81
2023/12/04 10:36:54;;;;;;;6.57;4.83;;;;;;;-143.21;28.57;72746.47;5034136;28;20214;-81
2023/12/04 10:39:22;;;;;;;7.30;5.63;;;;;;;-143.21;28.78;72722.66;5018671;28;20202;-81
2023/12/04 10:42:01;;;;;;;8.13;4.97;;;;;;;-143.21;28.28;72686.97;5028799;28;20210;-81
2023/12/04 10:44:29;;;;;;;5.73;4.30;;;;;;;-143.21;27.90;72738.53;5028397;28;20230;-78
2023/12/04 10:46:58;;;;;;;6.07;4.47;;;;;;;-143.21;28.63;72855.56;5021782;28;20199;-79
2023/12/04 10:49:28;;;;;;;5.03;4.13;;;;;;;-143.21;29.33;72901.19;5018882;28;20207;-79
2023/12/04 10:51:59;;;;;;;9.87;4.40;;;;;;;-143.21;29.34;72849.59;5020301;28;20202;-80
2023/12/04 10:54:26;;;;;;;7.73;4.93;;;;;;;-143.21;29.01;72738.53;5030156;28;20218;-82
2023/12/04 10:56:54;;;;;;;9.53;5.43;;;;;;;-143.21;28.10;72617.56;5027476;28;20206;-83
2023/12/04 10:59:26;;;;;;;7.13;4.80;;;;;;;-143.21;27.19;72476.75;5036380;28;20199;-82
2023/12/04 11:01:55;;;;;;;6.67;5.20;;;;;;;-143.21;26.47;72474.75;5037029;28;20688;-81
2023/12/04 11:04:27;;;;;;;8.37;5.97;;;;;;;-143.21;27.38;72605.66;5037203;28;20201;-81
2023/12/04 11:06:55;;;;;;;7.47;5.30;;;;;;;-143.21;27.98;72603.66;5034732;28;20211;-81
2023/12/04 11:09:26;;;;;;;6.57;5.40;;;;;;;-143.21;27.82;72496.56;5043250;28;20251;-82
2023/12/04 11:11:59;;;;;;;7.43;5.40;;;;;;;-143.21;27.10;72403.34;5030727;28;20239;-82
2023/12/04 11:14:31;;;;;;;7.40;5.17;;;;;;;-143.21;26.71;72448.97;5020929;28;20212;-82
2023/12/04 11:17:05;;;;;;;9.13;5.53;;;;;;;-143.21;27.05;72421.22;5026288;28;20209;-82
2023/12/04 11:19:40;;;;;;;8.43;5.57;;;;;;;-143.21;26.92;72389.47;5034089;28;20205;-81
2023/12/04 11:22:10;;;;;;;8.27;4.90;;;;;;;-143.21;26.82;72339.91;5017087;28;20207;-81
2023/12/04 11:24:40;;;;;;;6.97;5.30;;;;;;;-143.21;26.63;72353.78;5033748;28;20202;-81
2023/12/04 11:27:07;;;;;;;7.87;5.77;;;;;;;-143.21;26.77;72310.16;5028567;28;20226;-81
2023/12/04 11:29:34;;;;;;;8.00;5.90;;;;;;;-143.21;26.11;72207.03;5034600;28;20203;-82